West Middletown, Ohio
Current Conditions -  °F | °C
As of 1:15 PM on Friday 24 Oct 2014 (Local Time) from KMWO Reporting Station
Clear Clear  
Wind Chill: 62°   Ceiling: Unl
Heat Index: 62°   Visibility: 7mi
Dew Point: 40°   Wind: 3mph
Humidity: 44%   Direction: 210°SSW
Pressure: 30.11"   Gusts: NA
Location:  39.5538°N, 84.4567°W
Report Text: KMWO 241715Z AUTO 21003KT 7SM CLR 17/04 A3011 RMK AO2 T01660043
Loading
Personal Weather Stations






























Interactive Weather Map
Tropical Storm Tracking
New forecast layout! Learn more

10-Day Weather Forecast

Advertisements
Track Severe Weather on mobile